createdAt,value
2022-09-15T00:00:09.497Z,19.07
2022-09-15T00:02:36.332Z,19.23
2022-09-15T00:05:03.452Z,18.99
2022-09-15T00:07:31.366Z,18.61
2022-09-15T00:09:57.958Z,18.73
2022-09-15T00:12:25.020Z,18.71
2022-09-15T00:14:51.663Z,18.76
2022-09-15T00:17:18.384Z,19.37
2022-09-15T00:19:45.032Z,19.56
2022-09-15T00:22:11.779Z,19.54
2022-09-15T00:24:38.771Z,19.43
2022-09-15T00:27:05.331Z,19.56
2022-09-15T00:29:31.958Z,19.59
2022-09-15T00:31:58.610Z,19.29
2022-09-15T00:34:25.370Z,18.89
2022-09-15T00:36:51.992Z,18.75
2022-09-15T00:39:18.867Z,18.45
2022-09-15T00:41:45.408Z,18.81
2022-09-15T00:44:37.068Z,18.87
2022-09-15T00:47:21.844Z,19.28
2022-09-15T00:49:58.823Z,19.22
2022-09-15T00:52:32.335Z,18.30
2022-09-15T00:55:19.415Z,18.45
2022-09-15T00:57:52.377Z,18.70
2022-09-15T01:00:21.569Z,19.00
2022-09-15T01:02:49.285Z,19.06
2022-09-15T01:05:18.802Z,19.19
2022-09-15T01:08:08.915Z,19.30
2022-09-15T01:10:38.722Z,19.41
2022-09-15T01:13:09.941Z,19.40
2022-09-15T01:15:54.998Z,19.20
2022-09-15T01:18:36.940Z,19.42
2022-09-15T01:21:06.908Z,19.01
2022-09-15T01:23:52.116Z,18.47
2022-09-15T01:26:46.779Z,18.06
2022-09-15T01:29:25.239Z,18.29
2022-09-15T01:32:38.908Z,18.94
2022-09-15T01:35:34.966Z,19.22
2022-09-15T01:38:23.189Z,19.26
2022-09-15T01:41:15.805Z,19.15
2022-09-15T01:43:50.101Z,19.15
2022-09-15T01:46:20.505Z,19.32
2022-09-15T01:48:49.412Z,19.43
2022-09-15T01:51:16.468Z,19.45
2022-09-15T01:53:44.739Z,19.18
2022-09-15T01:56:12.147Z,19.04
2022-09-15T01:58:41.014Z,19.21
2022-09-15T02:01:14.151Z,19.24
2022-09-15T02:03:56.184Z,19.34
2022-09-15T02:06:36.008Z,19.44
2022-09-15T02:09:18.031Z,19.40
2022-09-15T02:11:56.562Z,19.34
2022-09-15T02:14:33.799Z,19.50
2022-09-15T02:17:01.644Z,19.38
2022-09-15T02:19:34.700Z,19.07
2022-09-15T02:22:13.387Z,19.54
2022-09-15T02:24:45.974Z,19.29
2022-09-15T02:27:17.806Z,19.07
2022-09-15T02:29:48.802Z,19.43
2022-09-15T02:32:19.169Z,19.48
2022-09-15T02:34:49.051Z,19.52
2022-09-15T02:37:17.555Z,19.29
2022-09-15T02:39:51.833Z,19.27
2022-09-15T02:42:29.143Z,18.64
2022-09-15T02:44:55.847Z,19.29
2022-09-15T02:47:23.720Z,19.24
2022-09-15T02:49:50.543Z,19.38
2022-09-15T02:52:17.444Z,19.61
2022-09-15T02:54:44.030Z,19.35
2022-09-15T02:57:10.606Z,19.11
2022-09-15T03:00:12.986Z,19.33
2022-09-15T03:02:44.722Z,19.29
2022-09-15T03:05:14.000Z,19.33
2022-09-15T03:07:41.434Z,19.47
2022-09-15T03:10:10.383Z,19.26
2022-09-15T03:12:44.983Z,19.31
2022-09-15T03:17:54.407Z,19.00
2022-09-15T03:20:24.134Z,18.46
2022-09-15T03:22:51.039Z,18.24
2022-09-15T03:25:18.725Z,18.25
2022-09-15T03:27:45.592Z,18.19
2022-09-15T03:30:12.898Z,18.95
2022-09-15T03:32:39.915Z,19.00
2022-09-15T03:35:07.500Z,19.12
2022-09-15T03:37:34.498Z,19.14
2022-09-15T03:40:01.323Z,18.39
2022-09-15T03:42:27.901Z,18.53
2022-09-15T03:44:54.543Z,18.97
2022-09-15T03:47:21.183Z,19.14
2022-09-15T03:49:47.833Z,19.22
2022-09-15T03:52:14.550Z,19.11
2022-09-15T03:54:41.414Z,19.20
2022-09-15T03:57:08.008Z,19.13
2022-09-15T03:59:34.585Z,19.35
2022-09-15T04:02:01.343Z,19.35
2022-09-15T04:04:28.231Z,19.27
2022-09-15T04:06:54.810Z,19.29
2022-09-15T04:09:21.547Z,19.16
2022-09-15T04:11:48.327Z,19.17
2022-09-15T04:14:15.660Z,19.09
2022-09-15T04:16:42.382Z,19.24
2022-09-15T04:19:09.174Z,18.75
2022-09-15T04:21:35.939Z,18.98
2022-09-15T04:24:04.811Z,19.03
2022-09-15T04:26:35.069Z,18.99
2022-09-15T04:29:04.461Z,19.37
2022-09-15T04:31:33.160Z,19.22
2022-09-15T04:33:59.994Z,19.15
2022-09-15T04:36:30.022Z,18.99
2022-09-15T04:38:56.851Z,19.24
2022-09-15T04:41:24.724Z,19.14
2022-09-15T04:43:53.538Z,19.34
2022-09-15T04:46:20.851Z,19.29
2022-09-15T04:48:48.833Z,19.34
2022-09-15T04:51:19.577Z,19.32
2022-09-15T04:53:46.958Z,19.01
2022-09-15T04:56:20.179Z,19.23
2022-09-15T04:59:03.256Z,19.16
2022-09-15T05:01:33.039Z,19.17
2022-09-15T05:04:03.871Z,19.22
2022-09-15T05:06:30.664Z,19.44
2022-09-15T05:08:58.392Z,19.53
2022-09-15T05:11:26.187Z,19.29
2022-09-15T05:13:53.275Z,19.34
2022-09-15T05:16:28.256Z,19.24
2022-09-15T05:18:57.692Z,19.46
2022-09-15T05:21:25.152Z,19.41
2022-09-15T05:23:52.745Z,19.19
2022-09-15T05:26:25.412Z,19.40
2022-09-15T05:28:53.067Z,19.58
2022-09-15T05:31:22.998Z,19.18
2022-09-15T05:33:51.410Z,19.16
2022-09-15T05:36:20.242Z,19.04
2022-09-15T05:38:47.141Z,18.90
2022-09-15T05:41:19.065Z,18.77
2022-09-15T05:43:47.751Z,19.00
2022-09-15T05:46:15.290Z,19.08
2022-09-15T05:48:42.375Z,18.59
2022-09-15T05:51:09.071Z,19.18
2022-09-15T05:53:36.189Z,19.22
2022-09-15T05:56:05.591Z,19.20
2022-09-15T05:58:32.706Z,19.27
2022-09-15T06:01:08.101Z,19.73
2022-09-15T06:03:35.737Z,19.85
2022-09-15T06:06:03.669Z,20.07
2022-09-15T06:08:44.455Z,19.93
2022-09-15T06:11:31.131Z,19.79
2022-09-15T06:14:03.169Z,19.49
2022-09-15T06:16:33.204Z,19.11
2022-09-15T06:19:01.071Z,19.68
2022-09-15T06:21:29.725Z,18.96
2022-09-15T06:24:01.921Z,19.10
2022-09-15T06:26:28.782Z,19.16
2022-09-15T06:28:57.692Z,18.94
2022-09-15T06:31:26.465Z,19.39
2022-09-15T06:33:55.985Z,19.88
2022-09-15T06:36:25.919Z,20.37
2022-09-15T06:38:52.913Z,20.54
2022-09-15T06:41:19.755Z,20.37
2022-09-15T06:43:49.034Z,20.18
2022-09-15T06:46:21.388Z,20.10
2022-09-15T06:48:49.227Z,20.32
2022-09-15T06:51:17.821Z,20.33
2022-09-15T06:53:45.216Z,20.10
2022-09-15T06:56:14.573Z,20.10
2022-09-15T06:58:42.629Z,20.30
2022-09-15T07:01:12.323Z,20.32
2022-09-15T07:03:41.113Z,20.73
2022-09-15T07:06:08.678Z,20.77
2022-09-15T07:08:35.578Z,20.38
2022-09-15T07:11:02.188Z,20.79
2022-09-15T07:13:28.939Z,21.13
2022-09-15T07:15:57.922Z,21.15
2022-09-15T07:18:25.319Z,21.78
2022-09-15T07:20:52.408Z,22.01
2022-09-15T07:23:19.402Z,21.97
2022-09-15T07:25:46.039Z,22.34
2022-09-15T07:28:13.277Z,22.50
2022-09-15T07:30:40.948Z,22.72
2022-09-15T07:33:09.166Z,22.55
2022-09-15T07:35:41.590Z,22.06
2022-09-15T07:38:08.196Z,22.09
2022-09-15T07:40:34.793Z,22.34
2022-09-15T07:43:01.650Z,21.78
2022-09-15T07:45:28.370Z,21.89
2022-09-15T07:47:55.044Z,21.77
2022-09-15T07:50:21.616Z,22.42
2022-09-15T07:52:48.172Z,22.67
2022-09-15T07:55:15.422Z,23.13
2022-09-15T07:57:41.991Z,22.97
2022-09-15T08:00:09.313Z,23.58
2022-09-15T08:02:41.639Z,23.81
2022-09-15T08:05:08.228Z,23.73
2022-09-15T08:07:34.816Z,24.22
2022-09-15T08:10:01.435Z,24.27
2022-09-15T08:12:30.648Z,24.31
2022-09-15T08:14:57.402Z,24.30
2022-09-15T08:17:23.993Z,23.96
2022-09-15T08:19:50.573Z,24.37
2022-09-15T08:22:17.130Z,24.62
2022-09-15T08:24:43.695Z,24.68
2022-09-15T08:27:10.699Z,24.54
2022-09-15T08:29:37.318Z,24.71
2022-09-15T08:32:04.058Z,23.79
2022-09-15T08:34:31.005Z,23.91
2022-09-15T08:36:57.575Z,23.57
2022-09-15T08:39:24.168Z,23.22
2022-09-15T08:41:53.323Z,23.24
2022-09-15T08:44:36.164Z,24.05
2022-09-15T08:47:12.894Z,24.65
2022-09-15T08:49:57.967Z,24.88
2022-09-15T08:52:41.125Z,25.30
2022-09-15T08:55:26.638Z,25.35
2022-09-15T08:57:53.907Z,25.14
2022-09-15T09:00:20.525Z,24.54
2022-09-15T09:03:11.803Z,24.59
2022-09-15T09:05:50.309Z,24.42
2022-09-15T09:08:32.096Z,23.98
2022-09-15T09:11:16.530Z,23.96
2022-09-15T09:13:47.945Z,23.82
2022-09-15T09:16:25.200Z,24.66
2022-09-15T09:19:14.881Z,24.48
2022-09-15T09:21:47.131Z,25.37
2022-09-15T09:24:26.667Z,25.49
2022-09-15T09:26:55.760Z,24.82
2022-09-15T09:29:33.003Z,25.09
2022-09-15T09:32:01.329Z,24.60
2022-09-15T09:34:44.200Z,24.09
2022-09-15T09:37:14.115Z,23.41
2022-09-15T09:39:41.097Z,22.31
2022-09-15T09:42:14.494Z,22.09
2022-09-15T09:44:41.631Z,21.55
2022-09-15T09:47:08.282Z,21.00
2022-09-15T09:49:39.408Z,21.41
2022-09-15T09:52:06.004Z,21.48
2022-09-15T09:54:35.476Z,21.71
2022-09-15T09:57:14.267Z,21.63
2022-09-15T09:59:42.182Z,21.17
2022-09-15T10:02:11.508Z,21.13
2022-09-15T10:04:45.718Z,21.20
2022-09-15T10:07:14.362Z,21.73
2022-09-15T10:09:50.412Z,21.78
2022-09-15T10:12:21.430Z,22.23
2022-09-15T10:14:53.169Z,23.24
2022-09-15T10:17:48.162Z,23.61
2022-09-15T10:20:35.428Z,24.23
2022-09-15T10:23:23.090Z,24.70
2022-09-15T10:25:59.099Z,25.29
2022-09-15T10:28:27.551Z,25.48
2022-09-15T10:31:03.988Z,25.48
2022-09-15T10:33:34.925Z,25.08
2022-09-15T10:36:31.472Z,23.78
2022-09-15T10:39:32.129Z,24.22
2022-09-15T10:42:46.068Z,24.16
2022-09-15T10:45:33.734Z,24.23
2022-09-15T10:48:07.120Z,24.97
2022-09-15T10:50:50.563Z,25.48
2022-09-15T10:53:20.267Z,25.51
2022-09-15T10:56:06.751Z,25.49
2022-09-15T10:58:52.027Z,25.49
2022-09-15T11:01:54.122Z,24.65
2022-09-15T11:04:28.262Z,24.68
2022-09-15T11:07:29.330Z,25.06
2022-09-15T11:10:04.823Z,25.53
2022-09-15T11:12:56.229Z,25.16
2022-09-15T11:15:47.288Z,25.12
2022-09-15T11:18:40.677Z,24.63
2022-09-15T11:21:37.517Z,24.34
2022-09-15T11:24:06.740Z,23.75
2022-09-15T11:26:42.406Z,23.52
2022-09-15T11:29:51.423Z,23.35
2022-09-15T11:32:25.734Z,23.03
2022-09-15T11:35:01.295Z,22.22
2022-09-15T11:37:39.134Z,21.98
2022-09-15T11:40:15.051Z,22.17
2022-09-15T11:42:44.932Z,23.01
2022-09-15T11:45:25.732Z,23.27
2022-09-15T11:47:59.936Z,23.49
2022-09-15T11:50:32.817Z,23.82
2022-09-15T11:53:08.243Z,23.34
2022-09-15T11:55:37.672Z,24.26
2022-09-15T11:58:19.682Z,24.10
2022-09-15T12:00:56.596Z,24.42
2022-09-15T12:03:32.508Z,24.08
2022-09-15T12:06:05.382Z,23.79
2022-09-15T12:08:53.450Z,24.52
2022-09-15T12:11:24.015Z,24.73
2022-09-15T12:13:52.142Z,24.94
2022-09-15T12:16:20.533Z,24.05
2022-09-15T12:19:07.552Z,24.08
2022-09-15T12:22:02.070Z,24.50
2022-09-15T12:24:53.062Z,24.25
2022-09-15T12:27:21.157Z,24.45
2022-09-15T12:29:52.650Z,24.54
2022-09-15T12:32:24.814Z,23.72
2022-09-15T12:35:02.298Z,23.66
2022-09-15T12:37:44.069Z,24.19
2022-09-15T12:40:37.524Z,24.40
2022-09-15T12:43:19.684Z,24.36
2022-09-15T12:46:00.909Z,24.74
2022-09-15T12:48:30.571Z,23.92
2022-09-15T12:51:05.060Z,24.66
2022-09-15T12:53:40.849Z,24.67
2022-09-15T12:56:21.347Z,24.01
2022-09-15T12:58:50.107Z,23.50
2022-09-15T13:01:22.908Z,23.13
2022-09-15T13:03:49.604Z,23.23
2022-09-15T13:06:22.243Z,23.10
2022-09-15T13:08:51.777Z,22.68
2022-09-15T13:11:34.731Z,22.34
2022-09-15T13:14:04.314Z,22.46
2022-09-15T13:16:52.414Z,22.26
2022-09-15T13:19:46.702Z,22.46
2022-09-15T13:22:20.014Z,22.57
2022-09-15T13:25:10.769Z,21.59
2022-09-15T13:28:04.024Z,21.07
2022-09-15T13:30:40.923Z,20.94
2022-09-15T13:33:16.966Z,20.82
2022-09-15T13:35:52.711Z,20.57
2022-09-15T13:38:37.961Z,20.85
2022-09-15T13:41:19.339Z,20.73
2022-09-15T13:44:00.017Z,20.93
2022-09-15T13:46:43.598Z,20.94
2022-09-15T13:49:28.974Z,20.76
2022-09-15T13:52:15.874Z,20.92
2022-09-15T13:55:26.377Z,20.86
2022-09-15T14:01:00.555Z,21.42
2022-09-15T14:03:36.798Z,21.58
2022-09-15T14:06:14.347Z,21.43
2022-09-15T14:08:43.842Z,21.37
2022-09-15T14:11:15.747Z,21.91
2022-09-15T14:13:49.031Z,21.83
2022-09-15T14:16:27.811Z,21.69
2022-09-15T14:18:57.735Z,21.47
2022-09-15T14:21:30.129Z,21.62
2022-09-15T14:24:00.409Z,21.78
2022-09-15T14:26:29.502Z,22.05
2022-09-15T14:29:01.449Z,21.80
2022-09-15T14:31:31.688Z,22.04
2022-09-15T14:33:58.397Z,22.22
2022-09-15T14:36:28.857Z,21.52
2022-09-15T14:39:11.642Z,21.81
2022-09-15T14:41:40.120Z,21.96
2022-09-15T14:47:22.172Z,20.44
2022-09-15T14:49:49.011Z,19.98
2022-09-15T14:52:28.811Z,20.02
2022-09-15T14:55:01.746Z,20.04
2022-09-15T14:57:31.891Z,20.35
2022-09-15T15:00:03.898Z,19.98
2022-09-15T15:02:41.198Z,20.05
2022-09-15T15:05:14.994Z,20.16
2022-09-15T15:07:42.900Z,20.57
2022-09-15T15:10:32.203Z,20.28
2022-09-15T15:13:07.053Z,20.24
2022-09-15T15:15:34.447Z,20.10
2022-09-15T15:18:04.742Z,20.18
2022-09-15T15:20:31.516Z,20.25
2022-09-15T15:23:11.091Z,20.15
2022-09-15T15:25:37.878Z,20.37
2022-09-15T15:28:06.396Z,20.36
2022-09-15T15:30:36.512Z,20.29
2022-09-15T15:33:15.085Z,20.50
2022-09-15T15:35:44.240Z,20.42
2022-09-15T15:38:20.343Z,20.40
2022-09-15T15:40:46.927Z,20.55
2022-09-15T15:43:25.235Z,19.79
2022-09-15T15:45:58.147Z,19.81
2022-09-15T15:48:26.609Z,19.77
2022-09-15T15:50:55.187Z,19.71
2022-09-15T15:53:23.338Z,19.95
2022-09-15T15:55:50.276Z,19.98
2022-09-15T15:58:17.340Z,20.05
2022-09-15T16:00:47.349Z,20.10
2022-09-15T16:03:15.912Z,20.01
2022-09-15T16:05:46.697Z,19.60
2022-09-15T16:08:38.126Z,19.91
2022-09-15T16:11:05.198Z,20.06
2022-09-15T16:13:31.789Z,19.99
2022-09-15T16:16:00.984Z,20.22
2022-09-15T16:18:28.754Z,20.26
2022-09-15T16:20:55.480Z,20.34
2022-09-15T16:23:23.073Z,20.63
2022-09-15T16:25:52.873Z,20.29
2022-09-15T16:28:20.092Z,20.33
2022-09-15T16:30:47.329Z,20.13
2022-09-15T16:33:18.460Z,20.32
2022-09-15T16:36:03.607Z,20.12
2022-09-15T16:38:30.264Z,19.97
2022-09-15T16:40:56.873Z,20.00
2022-09-15T16:43:23.647Z,20.36
2022-09-15T16:45:51.344Z,20.27
2022-09-15T16:48:18.478Z,20.01
2022-09-15T16:51:01.225Z,19.84
2022-09-15T16:53:33.253Z,19.57
2022-09-15T16:55:59.840Z,19.52
2022-09-15T16:58:26.606Z,19.80
2022-09-15T17:00:53.722Z,19.27
2022-09-15T17:03:23.841Z,19.25
2022-09-15T17:05:52.323Z,19.46
2022-09-15T17:08:21.415Z,19.79
2022-09-15T17:10:48.853Z,19.65
2022-09-15T17:13:19.544Z,19.52
2022-09-15T17:15:47.286Z,19.68
2022-09-15T17:18:15.554Z,19.39
2022-09-15T17:20:43.878Z,19.23
2022-09-15T17:23:59.963Z,18.32
2022-09-15T17:26:31.338Z,18.97
2022-09-15T17:28:58.604Z,19.11
2022-09-15T17:31:25.538Z,19.38
2022-09-15T17:33:53.162Z,18.38
2022-09-15T17:36:20.011Z,18.44
2022-09-15T17:38:48.798Z,17.64
2022-09-15T17:41:20.496Z,17.67
2022-09-15T17:43:47.540Z,17.43
2022-09-15T17:46:14.354Z,16.89
2022-09-15T17:48:41.079Z,17.28
2022-09-15T17:51:14.264Z,17.52
2022-09-15T17:53:41.001Z,17.47
2022-09-15T17:56:07.797Z,17.16
2022-09-15T17:58:34.438Z,16.68
2022-09-15T18:01:01.286Z,16.42
2022-09-15T18:03:34.087Z,16.51
2022-09-15T18:06:05.130Z,16.26
2022-09-15T18:08:36.215Z,16.42
2022-09-15T18:11:05.156Z,16.75
2022-09-15T18:13:32.195Z,16.97
2022-09-15T18:16:07.224Z,17.26
2022-09-15T18:18:34.279Z,17.12
2022-09-15T18:21:01.544Z,17.06
2022-09-15T18:23:31.087Z,16.57
2022-09-15T18:25:58.109Z,16.48
2022-09-15T18:28:24.806Z,16.37
2022-09-15T18:30:52.176Z,16.32
2022-09-15T18:33:24.227Z,15.79
2022-09-15T18:35:53.787Z,15.70
2022-09-15T18:38:21.752Z,15.65
2022-09-15T18:40:55.445Z,16.14
2022-09-15T18:43:23.470Z,15.98
2022-09-15T18:45:50.428Z,15.79
2022-09-15T18:48:17.142Z,15.79
2022-09-15T18:50:44.947Z,15.69
2022-09-15T18:53:12.585Z,16.64
2022-09-15T18:55:42.738Z,17.76
2022-09-15T18:58:10.921Z,17.56
2022-09-15T19:00:37.868Z,17.32
2022-09-15T19:03:06.156Z,17.38
2022-09-15T19:05:34.213Z,17.45
2022-09-15T19:08:02.365Z,16.33
2022-09-15T19:10:29.406Z,16.01
2022-09-15T19:12:56.169Z,16.14
2022-09-15T19:15:24.095Z,16.30
2022-09-15T19:17:51.244Z,16.18
2022-09-15T19:20:18.415Z,16.36
2022-09-15T19:22:46.050Z,16.48
2022-09-15T19:25:14.003Z,16.03
2022-09-15T19:27:41.370Z,16.01
2022-09-15T19:30:10.136Z,16.27
2022-09-15T19:32:38.424Z,16.19
2022-09-15T19:35:06.763Z,16.90
2022-09-15T19:37:37.271Z,16.44
2022-09-15T19:40:08.350Z,16.26
2022-09-15T19:42:36.340Z,16.22
2022-09-15T19:45:03.073Z,16.84
2022-09-15T19:47:30.011Z,17.05
2022-09-15T19:49:56.829Z,16.98
2022-09-15T19:52:23.694Z,16.96
2022-09-15T19:54:50.348Z,17.23
2022-09-15T19:57:17.034Z,17.06
2022-09-15T19:59:44.786Z,17.21
2022-09-15T20:02:12.081Z,17.24
2022-09-15T20:04:39.636Z,17.26
2022-09-15T20:07:06.357Z,17.18
2022-09-15T20:09:33.453Z,17.07
2022-09-15T20:12:03.383Z,16.97
2022-09-15T20:14:31.428Z,17.17
2022-09-15T20:17:01.128Z,16.98
2022-09-15T20:19:29.308Z,17.14
2022-09-15T20:21:56.258Z,17.00
2022-09-15T20:24:23.955Z,16.88
2022-09-15T20:26:51.681Z,16.55
2022-09-15T20:29:18.951Z,16.54
2022-09-15T20:31:46.213Z,16.96
2022-09-15T20:34:13.372Z,16.84
2022-09-15T20:36:40.660Z,16.92
2022-09-15T20:39:10.672Z,16.87
2022-09-15T20:41:37.816Z,16.72
2022-09-15T20:44:06.111Z,16.63
2022-09-15T20:46:33.596Z,16.57
2022-09-15T20:49:00.420Z,16.57
2022-09-15T20:51:31.644Z,16.22
2022-09-15T20:54:00.124Z,15.72
2022-09-15T20:56:29.492Z,15.78
2022-09-15T20:58:58.596Z,15.65
2022-09-15T21:01:34.278Z,15.57
2022-09-15T21:04:01.502Z,15.23
2022-09-15T21:06:29.172Z,15.24
2022-09-15T21:08:56.819Z,15.66
2022-09-15T21:11:26.363Z,15.96
2022-09-15T21:13:54.172Z,15.89
2022-09-15T21:16:24.503Z,16.20
2022-09-15T21:18:52.055Z,16.45
2022-09-15T21:21:21.757Z,15.94
2022-09-15T21:23:56.904Z,15.92
2022-09-15T21:26:28.966Z,16.14
2022-09-15T21:28:56.442Z,16.09
2022-09-15T21:31:27.068Z,16.22
2022-09-15T21:33:54.625Z,16.22
2022-09-15T21:36:29.811Z,15.61
2022-09-15T21:38:58.273Z,16.01
2022-09-15T21:41:28.172Z,16.23
2022-09-15T21:43:55.590Z,15.86
2022-09-15T21:46:25.200Z,15.52
2022-09-15T21:48:52.709Z,15.93
2022-09-15T21:51:24.936Z,15.80
2022-09-15T21:53:53.803Z,15.88
2022-09-15T21:56:21.782Z,15.51
2022-09-15T21:58:48.472Z,15.32
2022-09-15T22:01:18.932Z,15.37
2022-09-15T22:03:54.154Z,15.26
2022-09-15T22:06:23.362Z,15.81
2022-09-15T22:08:50.054Z,15.90
2022-09-15T22:11:16.736Z,15.94
2022-09-15T22:13:44.749Z,16.20
2022-09-15T22:16:17.658Z,16.34
2022-09-15T22:18:45.061Z,16.32
2022-09-15T22:21:19.195Z,15.88
2022-09-15T22:23:47.662Z,15.78
2022-09-15T22:26:23.164Z,15.86
2022-09-15T22:28:49.957Z,16.16
2022-09-15T22:31:18.874Z,15.75
2022-09-15T22:33:45.905Z,16.37
2022-09-15T22:36:14.446Z,15.92
2022-09-15T22:38:41.068Z,16.33
2022-09-15T22:41:12.009Z,15.93
2022-09-15T22:43:40.043Z,15.52
2022-09-15T22:46:07.708Z,15.58
2022-09-15T22:48:37.484Z,16.09
2022-09-15T22:51:07.153Z,16.32
2022-09-15T22:53:34.224Z,15.75
2022-09-15T22:56:11.469Z,15.64
2022-09-15T22:58:43.026Z,15.69
2022-09-15T23:01:13.563Z,15.79
2022-09-15T23:03:40.580Z,15.88
2022-09-15T23:06:08.054Z,16.06
2022-09-15T23:08:35.915Z,16.24
2022-09-15T23:11:03.631Z,16.33
2022-09-15T23:13:30.420Z,16.21
2022-09-15T23:15:57.132Z,16.29
2022-09-15T23:18:23.735Z,15.80
2022-09-15T23:20:57.837Z,15.82
2022-09-15T23:23:24.957Z,16.13
2022-09-15T23:25:51.655Z,15.92
2022-09-15T23:28:18.422Z,15.91
2022-09-15T23:30:45.035Z,15.39
2022-09-15T23:33:11.635Z,15.20
2022-09-15T23:35:38.383Z,15.08
2022-09-15T23:38:05.086Z,14.92
2022-09-15T23:40:33.010Z,15.18
2022-09-15T23:42:59.692Z,15.88
2022-09-15T23:45:26.254Z,15.99
2022-09-15T23:47:53.088Z,15.59
2022-09-15T23:50:19.756Z,15.47
2022-09-15T23:52:46.379Z,15.44
2022-09-15T23:55:14.227Z,15.71
2022-09-15T23:57:40.819Z,16.26
